Port Sulphur, LA (70083)

5:54 PM CST on February 08, 2016 (GMT -0600)
Deer Range | | Change Station
CLOSE
Current Station
Personal Weather Station
Location: Port Sulphur, LA
Elevation: 10 ft
Nearby Weather Stations
Active Advisory: Wind Advisory

Elev 10 ft 29.60 °N, 89.91 °W | Updated 2 seconds ago

Clear
Clear
67.6 °F
Feels Like 67.6 °F
N
0.0
Wind Variable Wind from NE
Gusts 0.0 mph

Today
High -- | Low -- °F
--% Chance of Precip.
Yesterday
High -- | Low -- °F
Precip. -- in
Pressure 30.04 in
Visibility 7.0 miles
Clouds Mostly Cloudy 4000 ft
Dew Point 48 °F
Humidity 49%
Rainfall 0.00 in
Snow Depth Not available.
6:44 AM 5:42 PM
New Moon, 0% visible
SPECI KAXO 082245Z 31021KT 7SM BKN040 14/07 A3004 RMK LAST
Pressure 30.04 in
Visibility 7.0 miles
Clouds Mostly Cloudy 4000 ft
Dew Point 48 °F
Humidity 49%
Rainfall 0.00 in
Snow Depth Not available.
6:44 AM 5:42 PM
New Moon, 0% visible
SPECI KAXO 082245Z 31021KT 7SM BKN040 14/07 A3004 RMK LAST

10-Day Weather Forecast

Almanac

Astronomy

Feb. 08, 2016 Rise Set
Actual Time
Civil Twilight
Nautical Twilight
Astronomical Twilight
Moon
Length of Visible Light
Length of Day
Tomorrow will be .
, % of the Moon is Illuminated

Today's Extremes

State Highs State Lows

Community

WunderPhotos

Upload Photos

1,891,527 photos uploaded!

WunderBlog® & News

Nearby

Air Quality

  Air Quality AQ Index Pollutant
Not available.

Snow Depth

Station Depth Elevation

Earthquake Activity

City Distance Mag. Time & Date
Minimum magnitude displayed is 2.5.

Coastal Water Temperatures

Place Temperature

Stations

Nearby Weather Stations

Station Location Temp. Windchill Dew Point Humidity Wind Precip. Elev Updated Type
                   

Watches & Warnings

Wind Advisory
Issued: 3:30 PM CST Feb. 8, 2016 – National Weather Service

... Wind Advisory remains in effect until 6 am CST Tuesday...

* winds... 25 to 30 mph with frequent gusts up to 40 mph.

* Impacts... windy conditions will lead to difficult driving
conditions especially along elevated roadways along with
east/west highways and interstates.

Precautionary/preparedness actions...

A Wind Advisory means that winds of 26 to 39 mph are expected.
Winds this strong can make driving difficult... especially for
high profile vehicles. Use extra caution.



32